Aviation Digital Data Service (ADDS)

Output produced by METARs form (0834 UTC 02 August 2014)
found at http://aviationweather.gov/adds/metars/
 
KAEX 020829Z 30004KT 1 1/2SM BR OVC002 22/22 A2993 RMK AO2 T02220222